createdAt,value
2018-11-28T00:00:17.263Z,5.87
2018-11-28T00:02:45.830Z,5.94
2018-11-28T00:05:14.371Z,5.92
2018-11-28T00:07:42.970Z,5.90
2018-11-28T00:10:13.459Z,5.95
2018-11-28T00:12:42.461Z,5.95
2018-11-28T00:15:13.850Z,5.95
2018-11-28T00:17:42.441Z,5.96
2018-11-28T00:20:15.382Z,6.02
2018-11-28T00:22:44.195Z,6.02
2018-11-28T00:25:13.427Z,6.04
2018-11-28T00:27:41.997Z,6.01
2018-11-28T00:30:16.951Z,6.05
2018-11-28T00:32:45.540Z,6.04
2018-11-28T00:35:16.889Z,6.01
2018-11-28T00:37:45.403Z,6.05
2018-11-28T00:40:14.864Z,6.00
2018-11-28T00:42:43.474Z,6.04
2018-11-28T00:45:13.955Z,6.08
2018-11-28T00:47:42.538Z,6.08
2018-11-28T00:50:12.999Z,6.05
2018-11-28T00:52:41.618Z,6.11
2018-11-28T00:55:13.516Z,6.06
2018-11-28T00:57:42.159Z,6.01
2018-11-28T01:00:17.063Z,6.08
2018-11-28T01:02:45.639Z,6.05
2018-11-28T01:05:14.918Z,6.05
2018-11-28T01:07:44.160Z,6.12
2018-11-28T01:10:14.629Z,6.00
2018-11-28T01:12:43.167Z,6.09
2018-11-28T01:15:12.868Z,6.09
2018-11-28T01:17:41.445Z,6.12
2018-11-28T01:20:11.527Z,6.14
2018-11-28T01:22:40.089Z,6.15
2018-11-28T01:25:10.654Z,6.14
2018-11-28T01:27:39.174Z,6.14
2018-11-28T01:30:11.711Z,6.16
2018-11-28T01:32:40.281Z,6.19
2018-11-28T01:35:13.885Z,6.16
2018-11-28T01:37:42.654Z,6.15
2018-11-28T01:40:13.284Z,6.18
2018-11-28T01:42:41.807Z,6.25
2018-11-28T01:45:12.814Z,6.22
2018-11-28T01:47:41.505Z,6.25
2018-11-28T01:50:12.145Z,6.29
2018-11-28T01:52:40.687Z,6.32
2018-11-28T01:55:10.313Z,6.36
2018-11-28T01:57:38.948Z,6.40
2018-11-28T02:00:16.033Z,6.41
2018-11-28T02:02:44.595Z,6.39
2018-11-28T02:05:13.234Z,6.37
2018-11-28T02:07:41.779Z,6.44
2018-11-28T02:10:11.722Z,6.44
2018-11-28T02:12:40.478Z,6.44
2018-11-28T02:15:10.665Z,6.44
2018-11-28T02:17:39.195Z,6.50
2018-11-28T02:20:09.879Z,6.47
2018-11-28T02:22:38.573Z,6.48
2018-11-28T02:25:08.250Z,6.49
2018-11-28T02:27:36.780Z,6.47
2018-11-28T02:30:07.479Z,6.58
2018-11-28T02:32:36.038Z,6.53
2018-11-28T02:35:05.335Z,6.59
2018-11-28T02:37:33.895Z,6.55
2018-11-28T02:40:02.477Z,6.51
2018-11-28T02:42:30.954Z,6.50
2018-11-28T02:44:59.499Z,6.50
2018-11-28T02:47:27.987Z,6.52
2018-11-28T02:49:56.507Z,6.55
2018-11-28T02:52:25.035Z,6.51
2018-11-28T02:54:53.577Z,6.43
2018-11-28T02:57:22.147Z,6.44
2018-11-28T02:59:50.667Z,6.51
2018-11-28T03:02:19.165Z,6.47
2018-11-28T03:04:47.673Z,6.48
2018-11-28T03:07:16.212Z,6.48
2018-11-28T03:09:44.756Z,6.43
2018-11-28T03:12:13.294Z,6.45
2018-11-28T03:14:41.864Z,6.47
2018-11-28T03:17:14.494Z,6.41
2018-11-28T03:19:43.082Z,6.47
2018-11-28T03:22:11.613Z,6.45
2018-11-28T03:24:40.159Z,6.42
2018-11-28T03:27:08.759Z,6.43
2018-11-28T03:29:37.296Z,6.44
2018-11-28T03:32:05.904Z,6.47
2018-11-28T03:34:34.537Z,6.48
2018-11-28T03:37:03.111Z,6.49
2018-11-28T03:39:31.687Z,6.47
2018-11-28T03:42:00.247Z,6.40
2018-11-28T03:44:28.873Z,6.44
2018-11-28T03:46:57.456Z,6.44
2018-11-28T03:49:26.037Z,6.42
2018-11-28T03:51:54.579Z,6.44
2018-11-28T03:54:23.134Z,6.44
2018-11-28T03:56:51.739Z,6.44
2018-11-28T03:59:20.310Z,6.53
2018-11-28T04:01:48.936Z,6.50
2018-11-28T04:04:17.478Z,6.47
2018-11-28T04:06:46.064Z,6.53
2018-11-28T04:09:14.699Z,6.56
2018-11-28T04:11:43.293Z,6.57
2018-11-28T04:14:11.891Z,6.56
2018-11-28T04:16:40.507Z,6.58
2018-11-28T04:19:09.132Z,6.60
2018-11-28T04:21:37.698Z,6.65
2018-11-28T04:24:06.266Z,6.61
2018-11-28T04:26:34.879Z,6.68
2018-11-28T04:29:03.428Z,6.69
2018-11-28T04:31:32.060Z,6.70
2018-11-28T04:34:00.593Z,6.69
2018-11-28T04:36:29.178Z,6.70
2018-11-28T04:38:57.740Z,6.70
2018-11-28T04:41:26.374Z,6.69
2018-11-28T04:43:54.915Z,6.75
2018-11-28T04:46:23.500Z,6.69
2018-11-28T04:48:52.079Z,6.79
2018-11-28T04:51:20.722Z,6.78
2018-11-28T04:53:49.322Z,6.75
2018-11-28T04:56:17.936Z,6.84
2018-11-28T04:58:46.470Z,6.87
2018-11-28T05:01:15.075Z,6.87
2018-11-28T05:03:43.641Z,6.89
2018-11-28T05:06:13.449Z,6.90
2018-11-28T05:08:41.991Z,6.96
2018-11-28T05:11:10.586Z,7.01
2018-11-28T05:13:39.205Z,6.98
2018-11-28T05:16:07.794Z,7.00
2018-11-28T05:18:37.408Z,6.98
2018-11-28T05:21:06.339Z,7.02
2018-11-28T05:23:35.977Z,7.06
2018-11-28T05:26:04.685Z,7.01
2018-11-28T05:28:33.282Z,7.07
2018-11-28T05:31:01.963Z,7.01
2018-11-28T05:33:30.589Z,7.02
2018-11-28T05:35:59.201Z,7.00
2018-11-28T05:38:27.823Z,7.06
2018-11-28T05:40:56.472Z,7.09
2018-11-28T05:43:25.073Z,7.03
2018-11-28T05:45:53.666Z,7.00
2018-11-28T05:48:22.247Z,7.07
2018-11-28T05:50:50.970Z,7.00
2018-11-28T05:53:19.632Z,7.04
2018-11-28T05:55:48.224Z,6.98
2018-11-28T05:58:16.803Z,6.97
2018-11-28T06:00:45.480Z,7.03
2018-11-28T06:03:14.218Z,6.99
2018-11-28T06:05:43.332Z,7.04
2018-11-28T06:08:11.901Z,7.02
2018-11-28T06:10:40.534Z,7.07
2018-11-28T06:13:09.175Z,7.01
2018-11-28T06:15:37.757Z,7.03
2018-11-28T06:18:07.604Z,7.05
2018-11-28T06:20:36.216Z,7.08
2018-11-28T06:23:04.863Z,7.06
2018-11-28T06:25:33.502Z,7.07
2018-11-28T06:28:02.121Z,7.04
2018-11-28T06:30:30.729Z,7.07
2018-11-28T06:32:59.790Z,7.09
2018-11-28T06:35:28.387Z,7.11
2018-11-28T06:37:56.968Z,7.13
2018-11-28T06:40:25.527Z,7.15
2018-11-28T06:42:54.047Z,7.16
2018-11-28T06:45:23.445Z,7.18
2018-11-28T06:47:51.993Z,7.15
2018-11-28T06:50:20.731Z,7.18
2018-11-28T06:52:50.511Z,7.23
2018-11-28T06:55:23.997Z,7.23
2018-11-28T06:57:52.604Z,7.22
2018-11-28T07:00:24.426Z,7.23
2018-11-28T07:02:54.226Z,7.27
2018-11-28T07:05:25.017Z,7.24
2018-11-28T07:07:57.311Z,7.25
2018-11-28T07:10:26.632Z,7.19
2018-11-28T07:12:55.275Z,7.28
2018-11-28T07:15:26.181Z,7.28
2018-11-28T07:17:54.765Z,7.31
2018-11-28T07:20:23.383Z,7.32
2018-11-28T07:22:51.957Z,7.40
2018-11-28T07:25:20.581Z,7.44
2018-11-28T07:27:49.626Z,7.42
2018-11-28T07:30:22.208Z,7.44
2018-11-28T07:32:52.269Z,7.47
2018-11-28T07:35:20.902Z,7.48
2018-11-28T07:37:52.088Z,7.48
2018-11-28T07:40:28.692Z,7.54
2018-11-28T07:43:12.128Z,7.50
2018-11-28T07:45:46.836Z,7.59
2018-11-28T07:48:17.284Z,7.57
2018-11-28T07:50:45.959Z,7.55
2018-11-28T07:53:16.733Z,7.58
2018-11-28T07:55:45.330Z,7.60
2018-11-28T07:58:13.866Z,7.69
2018-11-28T08:00:56.273Z,7.73
2018-11-28T08:03:24.810Z,7.82
2018-11-28T08:05:53.329Z,7.84
2018-11-28T08:08:28.073Z,7.86
2018-11-28T08:13:49.845Z,7.89
2018-11-28T08:16:18.506Z,7.98
2018-11-28T08:18:47.150Z,8.06
2018-11-28T08:21:15.774Z,8.06
2018-11-28T08:23:44.428Z,8.12
2018-11-28T08:26:13.038Z,8.19
2018-11-28T08:28:41.923Z,8.22
2018-11-28T08:31:10.489Z,8.28
2018-11-28T08:33:39.173Z,8.39
2018-11-28T08:36:07.802Z,8.43
2018-11-28T08:38:36.454Z,8.51
2018-11-28T08:41:05.105Z,8.58
2018-11-28T08:43:41.560Z,8.64
2018-11-28T08:46:23.432Z,8.76
2018-11-28T08:48:53.850Z,8.81
2018-11-28T08:51:22.972Z,8.87
2018-11-28T08:53:52.657Z,8.91
2018-11-28T08:56:21.551Z,9.06
2018-11-28T08:58:51.113Z,9.11
2018-11-28T09:01:23.196Z,9.24
2018-11-28T09:03:53.200Z,9.28
2018-11-28T09:06:25.610Z,9.44
2018-11-28T09:08:54.615Z,8.73
2018-11-28T09:11:23.427Z,9.49
2018-11-28T09:13:52.580Z,9.41
2018-11-28T09:16:24.180Z,9.39
2018-11-28T09:18:54.797Z,9.35
2018-11-28T09:21:23.783Z,9.36
2018-11-28T09:23:52.967Z,9.22
2018-11-28T09:26:21.878Z,9.14
2018-11-28T09:28:50.695Z,9.17
2018-11-28T09:31:20.301Z,9.22
2018-11-28T09:33:49.393Z,9.19
2018-11-28T09:36:18.310Z,9.15
2018-11-28T09:38:47.541Z,9.14
2018-11-28T09:41:16.736Z,9.16
2018-11-28T09:43:45.732Z,9.12
2018-11-28T09:46:14.954Z,9.15
2018-11-28T09:48:44.197Z,9.12
2018-11-28T09:51:13.393Z,9.21
2018-11-28T09:53:43.590Z,9.29
2018-11-28T09:56:12.559Z,9.22
2018-11-28T09:58:43.375Z,9.27
2018-11-28T10:01:12.969Z,9.33
2018-11-28T10:03:42.450Z,9.40
2018-11-28T10:06:12.113Z,9.36
2018-11-28T10:08:41.208Z,9.30
2018-11-28T10:11:10.460Z,9.35
2018-11-28T10:13:39.721Z,9.30
2018-11-28T10:18:49.133Z,9.35
2018-11-28T10:21:18.319Z,9.36
2018-11-28T10:23:47.501Z,9.44
2018-11-28T10:26:16.959Z,9.27
2018-11-28T10:28:46.073Z,9.29
2018-11-28T10:31:15.477Z,9.31
2018-11-28T10:33:44.566Z,9.30
2018-11-28T10:36:14.030Z,9.38
2018-11-28T10:38:45.734Z,9.34
2018-11-28T10:41:14.979Z,9.35
2018-11-28T10:43:44.013Z,9.45
2018-11-28T10:46:13.113Z,9.56
2018-11-28T10:48:43.561Z,9.70
2018-11-28T10:51:12.641Z,9.73
2018-11-28T10:53:41.850Z,9.91
2018-11-28T10:56:11.018Z,9.99
2018-11-28T10:58:40.294Z,10.00
2018-11-28T11:01:14.472Z,10.10
2018-11-28T11:03:48.584Z,10.31
2018-11-28T11:06:22.693Z,10.37
2018-11-28T11:08:57.245Z,10.44
2018-11-28T11:11:27.175Z,10.45
2018-11-28T11:14:01.815Z,10.40
2018-11-28T11:16:32.334Z,10.41
2018-11-28T11:19:01.353Z,10.48
2018-11-28T11:21:31.928Z,10.46
2018-11-28T11:24:01.295Z,10.46
2018-11-28T11:26:30.545Z,10.50
2018-11-28T11:28:59.673Z,10.48
2018-11-28T11:31:28.630Z,10.53
2018-11-28T11:33:57.560Z,10.58
2018-11-28T11:36:26.578Z,10.62
2018-11-28T11:38:55.512Z,10.55
2018-11-28T11:41:24.561Z,10.63
2018-11-28T11:43:53.504Z,10.70
2018-11-28T11:46:23.111Z,10.78
2018-11-28T11:48:52.052Z,10.81
2018-11-28T11:51:20.887Z,10.90
2018-11-28T11:53:50.176Z,10.94
2018-11-28T11:56:19.227Z,10.97
2018-11-28T11:58:48.130Z,11.02
2018-11-28T12:01:17.354Z,11.03
2018-11-28T12:03:46.345Z,11.05
2018-11-28T12:06:15.289Z,11.00
2018-11-28T12:08:45.256Z,11.06
2018-11-28T12:11:14.006Z,10.98
2018-11-28T12:13:42.857Z,11.06
2018-11-28T12:16:11.850Z,11.12
2018-11-28T12:18:42.339Z,11.28
2018-11-28T12:21:11.894Z,11.27
2018-11-28T12:23:40.983Z,11.30
2018-11-28T12:26:10.457Z,11.39
2018-11-28T12:28:39.852Z,11.34
2018-11-28T12:31:09.119Z,11.32
2018-11-28T12:33:37.897Z,11.34
2018-11-28T12:36:07.101Z,11.33
2018-11-28T12:38:37.208Z,11.39
2018-11-28T12:41:06.835Z,11.34
2018-11-28T12:43:35.727Z,11.30
2018-11-28T12:46:04.440Z,11.30
2018-11-28T12:48:33.295Z,11.25
2018-11-28T12:51:02.175Z,11.18
2018-11-28T12:53:31.178Z,11.15
2018-11-28T12:56:01.415Z,11.21
2018-11-28T12:58:30.393Z,11.17
2018-11-28T13:01:00.087Z,11.34
2018-11-28T13:03:37.433Z,11.35
2018-11-28T13:06:07.332Z,11.31
2018-11-28T13:08:45.553Z,11.39
2018-11-28T13:11:14.671Z,11.43
2018-11-28T13:13:44.132Z,11.52
2018-11-28T13:16:13.269Z,11.44
2018-11-28T13:18:42.957Z,11.42
2018-11-28T13:21:34.505Z,11.45
2018-11-28T13:24:26.524Z,11.44
2018-11-28T13:27:18.212Z,11.45
2018-11-28T13:29:47.054Z,11.38
2018-11-28T13:32:19.535Z,11.38
2018-11-28T13:34:48.904Z,11.35
2018-11-28T13:37:22.322Z,11.36
2018-11-28T13:39:51.365Z,11.34
2018-11-28T13:42:20.591Z,11.39
2018-11-28T13:44:50.080Z,11.34
2018-11-28T13:47:19.166Z,11.32
2018-11-28T13:49:48.058Z,11.27
2018-11-28T13:52:17.034Z,7.86
2018-11-28T13:55:37.938Z,11.23
2018-11-28T13:57:14.998Z,11.31
2018-11-28T13:59:44.209Z,11.32
2018-11-28T14:02:13.022Z,11.30
2018-11-28T14:04:42.063Z,11.23
2018-11-28T14:07:11.008Z,11.25
2018-11-28T14:09:39.996Z,11.18
2018-11-28T14:12:08.697Z,9.93
2018-11-28T14:14:38.082Z,11.10
2018-11-28T14:17:10.486Z,11.05
2018-11-28T14:19:39.735Z,10.96
2018-11-28T14:22:08.604Z,10.99
2018-11-28T14:24:37.581Z,11.03
2018-11-28T14:27:06.842Z,11.02
2018-11-28T14:29:36.243Z,10.95
2018-11-28T14:32:05.546Z,10.93
2018-11-28T14:34:34.804Z,10.95
2018-11-28T14:37:03.647Z,10.91
2018-11-28T14:39:37.083Z,10.88
2018-11-28T14:42:06.247Z,10.87
2018-11-28T14:44:35.670Z,10.81
2018-11-28T14:47:10.835Z,10.84
2018-11-28T14:49:39.491Z,10.89
2018-11-28T14:52:08.033Z,10.90
2018-11-28T14:54:36.597Z,10.83
2018-11-28T14:57:05.316Z,10.80
2018-11-28T14:59:34.000Z,10.78
2018-11-28T15:02:02.515Z,10.79
2018-11-28T15:04:31.050Z,10.78
2018-11-28T15:07:01.358Z,10.72
2018-11-28T15:09:36.802Z,10.73
2018-11-28T15:12:11.652Z,10.70
2018-11-28T15:14:38.213Z,10.66
2018-11-28T15:17:07.000Z,10.68
2018-11-28T15:19:35.682Z,10.62
2018-11-28T15:22:04.445Z,10.62
2018-11-28T15:24:33.123Z,10.58
2018-11-28T15:27:01.891Z,10.61
2018-11-28T15:29:30.707Z,10.58
2018-11-28T15:31:59.554Z,10.55
2018-11-28T15:34:28.256Z,10.51
2018-11-28T15:36:56.931Z,10.56
2018-11-28T15:39:25.566Z,10.57
2018-11-28T15:41:54.183Z,10.55
2018-11-28T15:44:22.933Z,10.57
2018-11-28T15:46:51.451Z,10.59
2018-11-28T15:49:20.252Z,10.59
2018-11-28T15:51:49.110Z,10.47
2018-11-28T15:54:17.781Z,10.56
2018-11-28T15:56:46.527Z,10.49
2018-11-28T15:59:15.063Z,10.50
2018-11-28T16:01:43.729Z,10.43
2018-11-28T16:04:12.238Z,10.47
2018-11-28T16:06:40.970Z,10.43
2018-11-28T16:09:13.942Z,10.48
2018-11-28T16:11:42.731Z,10.31
2018-11-28T16:14:11.265Z,10.22
2018-11-28T16:16:40.275Z,9.98
2018-11-28T16:19:08.951Z,9.85
2018-11-28T16:21:37.814Z,9.69
2018-11-28T16:24:06.852Z,9.48
2018-11-28T16:26:35.349Z,9.43
2018-11-28T16:29:03.932Z,9.33
2018-11-28T16:31:32.521Z,9.22
2018-11-28T16:34:01.009Z,9.14
2018-11-28T16:36:29.854Z,9.07
2018-11-28T16:38:58.554Z,9.01
2018-11-28T16:41:27.366Z,8.99
2018-11-28T16:43:56.043Z,8.93
2018-11-28T16:46:24.762Z,8.91
2018-11-28T16:48:53.357Z,8.90
2018-11-28T16:51:21.931Z,8.85
2018-11-28T16:53:51.092Z,8.87
2018-11-28T16:56:19.743Z,8.84
2018-11-28T16:58:48.368Z,8.88
2018-11-28T17:01:17.001Z,8.84
2018-11-28T17:03:45.553Z,8.81
2018-11-28T17:06:14.453Z,8.77
2018-11-28T17:08:43.318Z,8.79
2018-11-28T17:11:12.193Z,8.80
2018-11-28T17:13:40.762Z,8.76
2018-11-28T17:16:09.363Z,8.75
2018-11-28T17:18:37.968Z,8.82
2018-11-28T17:21:06.718Z,8.80
2018-11-28T17:23:35.802Z,8.74
2018-11-28T17:26:04.460Z,8.71
2018-11-28T17:28:33.283Z,8.84
2018-11-28T17:31:02.451Z,8.81
2018-11-28T17:33:31.162Z,8.72
2018-11-28T17:35:59.849Z,8.81
2018-11-28T17:38:28.580Z,8.74
2018-11-28T17:40:57.390Z,8.82
2018-11-28T17:43:26.182Z,8.74
2018-11-28T17:45:58.320Z,8.71
2018-11-28T17:48:30.968Z,8.67
2018-11-28T17:50:59.790Z,8.77
2018-11-28T17:53:28.537Z,8.78
2018-11-28T17:55:58.216Z,8.76
2018-11-28T17:58:26.791Z,8.75
2018-11-28T18:00:55.446Z,8.76
2018-11-28T18:03:24.561Z,8.73
2018-11-28T18:05:53.498Z,8.75
2018-11-28T18:08:22.061Z,8.67
2018-11-28T18:10:50.834Z,8.68
2018-11-28T18:13:19.705Z,8.74
2018-11-28T18:15:54.014Z,8.67
2018-11-28T18:18:23.976Z,8.63
2018-11-28T18:20:52.839Z,8.64
2018-11-28T18:23:21.818Z,8.62
2018-11-28T18:25:50.623Z,8.66
2018-11-28T18:28:19.547Z,8.64
2018-11-28T18:30:48.421Z,8.67
2018-11-28T18:33:17.288Z,8.76
2018-11-28T18:35:46.153Z,8.67
2018-11-28T18:38:14.993Z,8.74
2018-11-28T18:40:43.872Z,8.75
2018-11-28T18:43:12.868Z,8.79
2018-11-28T18:45:47.288Z,8.78
2018-11-28T18:48:16.075Z,8.82
2018-11-28T18:50:44.898Z,8.81
2018-11-28T18:53:13.617Z,8.78
2018-11-28T18:55:42.348Z,8.79
2018-11-28T18:58:12.164Z,8.84
2018-11-28T19:00:40.971Z,8.89
2018-11-28T19:03:09.813Z,8.91
2018-11-28T19:05:38.806Z,8.96
2018-11-28T19:08:08.517Z,8.96
2018-11-28T19:10:37.309Z,8.96
2018-11-28T19:13:05.994Z,9.01
2018-11-28T19:15:34.925Z,8.97
2018-11-28T19:18:03.565Z,8.96
2018-11-28T19:20:32.488Z,8.99
2018-11-28T19:23:01.373Z,8.99
2018-11-28T19:25:30.384Z,8.98
2018-11-28T19:27:59.561Z,9.01
2018-11-28T19:30:36.887Z,9.03
2018-11-28T19:33:11.817Z,8.92
2018-11-28T19:35:58.603Z,8.91
2018-11-28T19:38:27.795Z,8.96
2018-11-28T19:41:02.878Z,8.98
2018-11-28T19:43:37.169Z,8.99
2018-11-28T19:46:06.452Z,8.99
2018-11-28T19:48:35.568Z,8.97
2018-11-28T19:51:09.906Z,9.07
2018-11-28T19:53:40.804Z,9.08
2018-11-28T19:56:10.226Z,9.15
2018-11-28T19:58:39.554Z,9.10
2018-11-28T20:01:09.428Z,9.11
2018-11-28T20:03:42.914Z,9.12
2018-11-28T20:06:12.594Z,9.08
2018-11-28T20:08:42.345Z,9.12
2018-11-28T20:11:11.260Z,9.10
2018-11-28T20:13:41.132Z,9.07
2018-11-28T20:16:09.915Z,9.18
2018-11-28T20:18:38.730Z,9.09
2018-11-28T20:21:07.464Z,9.11
2018-11-28T20:23:37.402Z,9.20
2018-11-28T20:26:07.833Z,9.26
2018-11-28T20:28:36.795Z,9.34
2018-11-28T20:31:06.332Z,9.39
2018-11-28T20:33:35.024Z,9.42
2018-11-28T20:36:04.087Z,9.26
2018-11-28T20:38:34.250Z,9.37
2018-11-28T20:41:03.031Z,9.44
2018-11-28T20:43:31.909Z,9.46
2018-11-28T20:46:00.739Z,9.48
2018-11-28T20:48:29.553Z,9.50
2018-11-28T20:50:58.226Z,9.49
2018-11-28T20:53:26.929Z,9.45
2018-11-28T20:55:55.591Z,9.44
2018-11-28T20:58:24.195Z,9.47
2018-11-28T21:00:52.952Z,9.49
2018-11-28T21:03:21.527Z,9.55
2018-11-28T21:05:50.219Z,9.56
2018-11-28T21:08:18.863Z,9.53
2018-11-28T21:10:47.696Z,9.58
2018-11-28T21:13:16.376Z,9.62
2018-11-28T21:15:46.086Z,9.65
2018-11-28T21:18:14.893Z,9.70
2018-11-28T21:20:45.105Z,9.70
2018-11-28T21:23:16.037Z,9.73
2018-11-28T21:25:44.815Z,9.75
2018-11-28T21:28:13.506Z,9.77
2018-11-28T21:30:42.288Z,9.82
2018-11-28T21:33:15.115Z,9.79
2018-11-28T21:35:52.575Z,9.88
2018-11-28T21:38:21.267Z,9.88
2018-11-28T21:40:49.996Z,9.88
2018-11-28T21:43:18.671Z,9.90
2018-11-28T21:45:47.368Z,9.94
2018-11-28T21:48:16.026Z,9.94
2018-11-28T21:50:44.778Z,10.01
2018-11-28T21:53:13.382Z,9.97
2018-11-28T21:55:42.174Z,9.93
2018-11-28T21:58:10.828Z,10.02
2018-11-28T22:00:39.445Z,10.02
2018-11-28T22:03:08.228Z,10.09
2018-11-28T22:05:36.808Z,10.12
2018-11-28T22:08:05.559Z,10.05
2018-11-28T22:10:34.242Z,10.12
2018-11-28T22:13:02.957Z,10.12
2018-11-28T22:15:31.633Z,10.12
2018-11-28T22:18:00.246Z,10.13
2018-11-28T22:20:28.924Z,10.14
2018-11-28T22:22:57.597Z,10.07
2018-11-28T22:25:27.200Z,10.18
2018-11-28T22:27:56.037Z,10.22
2018-11-28T22:30:28.786Z,10.11
2018-11-28T22:32:57.899Z,10.13
2018-11-28T22:35:26.516Z,10.17
2018-11-28T22:37:55.185Z,10.21
2018-11-28T22:40:25.979Z,10.20
2018-11-28T22:42:54.581Z,10.25
2018-11-28T22:45:24.444Z,10.28
2018-11-28T22:47:53.132Z,10.31
2018-11-28T22:50:21.763Z,10.25
2018-11-28T22:52:50.468Z,10.27
2018-11-28T22:55:19.057Z,10.33
2018-11-28T22:57:47.738Z,9.09
2018-11-28T23:00:30.998Z,10.33
2018-11-28T23:03:01.044Z,10.35
2018-11-28T23:05:40.717Z,10.39
2018-11-28T23:08:11.597Z,10.42
2018-11-28T23:10:40.345Z,10.37
2018-11-28T23:13:11.745Z,10.47
2018-11-28T23:15:40.316Z,10.40
2018-11-28T23:18:10.058Z,10.39
2018-11-28T23:20:38.697Z,10.40
2018-11-28T23:23:08.374Z,10.48
2018-11-28T23:25:37.565Z,10.44
2018-11-28T23:28:06.683Z,10.49
2018-11-28T23:30:35.335Z,10.53
2018-11-28T23:33:04.481Z,10.53
2018-11-28T23:35:33.190Z,10.40
2018-11-28T23:38:01.824Z,10.49
2018-11-28T23:40:30.479Z,10.55
2018-11-28T23:42:59.134Z,10.55
2018-11-28T23:45:27.861Z,10.54
2018-11-28T23:47:56.537Z,10.59
2018-11-28T23:50:26.026Z,10.57
2018-11-28T23:52:55.715Z,10.55
2018-11-28T23:55:26.249Z,10.63
2018-11-28T23:57:55.078Z,10.62
